Time;durP1;ratioP1;P1;durP2;ratioP2;P2;SDS_P1;SDS_P2;PMS_P1;PMS_P2;Temp;Humidity;BMP_temperature;BMP_pressure;BME280_temperature;BME280_humidity;BME280_pressure;Samples;Min_cycle;Max_cycle;Signal;HPM_P1;HPM_P2
2022/10/18 00:01:00;;;;;;;0.32;0.32;;;12.50;99.90;;;;;;4850286;29;20052;-94
2022/10/18 00:03:26;;;;;;;0.65;0.60;;;12.50;99.90;;;;;;4880117;29;20074;-94
2022/10/18 00:05:52;;;;;;;0.60;0.60;;;12.40;99.90;;;;;;4864180;29;20041;-94
2022/10/18 00:08:19;;;;;;;0.38;0.20;;;12.40;99.90;;;;;;4878394;29;20067;-94
2022/10/18 00:10:45;;;;;;;0.98;0.52;;;12.40;99.90;;;;;;4861824;29;20124;-88
2022/10/18 00:13:11;;;;;;;0.70;0.57;;;12.40;99.90;;;;;;4872009;29;20477;-93
2022/10/18 00:15:37;;;;;;;0.70;0.40;;;12.40;99.90;;;;;;4862172;29;20079;-88
2022/10/18 00:18:02;;;;;;;1.40;0.80;;;12.40;99.90;;;;;;4856667;29;20089;-94
2022/10/18 00:20:28;;;;;;;2.30;0.60;;;12.40;99.90;;;;;;4873066;29;20481;-94
2022/10/18 00:22:54;;;;;;;1.10;0.87;;;12.40;99.90;;;;;;4863738;29;20048;-93
2022/10/18 00:25:19;;;;;;;0.80;0.33;;;12.40;99.90;;;;;;4856955;29;20063;-93
2022/10/18 00:27:45;;;;;;;0.95;0.85;;;12.40;99.90;;;;;;4845256;29;20169;-94
2022/10/18 00:30:11;;;;;;;0.80;0.80;;;12.40;99.90;;;;;;4847297;29;20064;-93
2022/10/18 00:32:37;;;;;;;1.20;0.37;;;12.30;99.90;;;;;;4869986;29;20497;-94
2022/10/18 00:35:04;;;;;;;0.28;0.28;;;12.30;99.90;;;;;;4876031;29;20056;-92
2022/10/18 00:37:30;;;;;;;;;;;12.30;99.90;;;;;;4881325;29;20052;-94
2022/10/18 00:39:56;;;;;;;2.08;1.02;;;12.30;99.90;;;;;;4881985;29;20279;-94
2022/10/18 00:42:24;;;;;;;0.33;0.33;;;12.30;99.90;;;;;;4868634;29;20073;-94
2022/10/18 00:44:49;;;;;;;1.95;0.60;;;12.30;99.90;;;;;;4864069;29;20052;-89
2022/10/18 00:47:16;;;;;;;0.83;0.83;;;12.30;99.90;;;;;;4870316;29;20047;-92
2022/10/18 00:49:54;;;;;;;1.20;0.60;;;12.30;99.90;;;;;;4881819;29;20105;-89
2022/10/18 00:52:26;;;;;;;1.98;0.75;;;12.30;99.90;;;;;;4849986;29;20059;-94
2022/10/18 00:54:54;;;;;;;1.45;0.47;;;12.20;99.90;;;;;;4868659;29;20052;-88
2022/10/18 00:57:20;;;;;;;0.90;0.35;;;12.30;99.90;;;;;;4876015;29;20072;-94
2022/10/18 00:59:46;;;;;;;0.98;0.32;;;12.20;99.90;;;;;;4872730;29;20476;-94
2022/10/18 01:02:17;;;;;;;0.40;0.40;;;12.30;99.90;;;;;;4858429;29;20053;-94
2022/10/18 01:04:44;;;;;;;0.60;0.40;;;12.30;99.90;;;;;;4874722;29;20052;-94
2022/10/18 01:07:35;;;;;;;0.60;0.60;;;12.30;99.90;;;;;;4869274;29;20113;-93
2022/10/18 01:10:25;;;;;;;1.33;0.40;;;12.20;99.90;;;;;;4871589;29;20049;-94
2022/10/18 01:13:16;;;;;;;0.98;0.60;;;12.20;99.90;;;;;;4873006;29;20078;-94
2022/10/18 01:16:19;;;;;;;0.82;0.80;;;12.20;99.90;;;;;;4893767;29;20052;-94
2022/10/18 01:18:53;;;;;;;0.85;0.50;;;12.30;99.90;;;;;;4842513;29;20064;-94
2022/10/18 01:21:43;;;;;;;0.77;0.63;;;12.30;99.90;;;;;;4868830;29;20055;-91
2022/10/18 01:24:23;;;;;;;0.50;0.50;;;12.30;99.90;;;;;;4877643;29;20079;-95
2022/10/18 01:27:13;;;;;;;0.60;0.30;;;12.20;99.90;;;;;;4871051;29;20089;-94
2022/10/18 01:30:12;;;;;;;2.00;0.30;;;12.20;99.90;;;;;;4872465;29;20108;-94
2022/10/18 01:32:52;;;;;;;0.98;0.50;;;12.30;99.90;;;;;;4859796;29;20049;-94
2022/10/18 01:35:25;;;;;;;0.50;0.50;;;12.20;99.90;;;;;;4879810;29;20640;-93
2022/10/18 01:37:58;;;;;;;3.10;1.27;;;12.20;99.90;;;;;;4871004;29;20497;-94
2022/10/18 01:40:24;;;;;;;1.80;0.60;;;12.20;99.90;;;;;;4869203;29;20045;-95
2022/10/18 01:42:50;;;;;;;1.85;1.02;;;12.20;99.90;;;;;;4865095;29;20053;-94
2022/10/18 01:45:17;;;;;;;0.65;0.63;;;12.20;99.90;;;;;;4865408;29;20049;-93
2022/10/18 01:47:45;;;;;;;0.52;0.40;;;12.20;99.90;;;;;;4866364;29;20041;-93
2022/10/18 01:50:11;;;;;;;0.82;0.50;;;12.20;99.90;;;;;;4875355;29;20064;-94
2022/10/18 01:52:50;;;;;;;1.05;0.70;;;12.20;99.90;;;;;;4864986;29;20084;-93
2022/10/18 01:55:20;;;;;;;1.50;0.55;;;12.20;99.90;;;;;;4856763;29;20113;-90
2022/10/18 01:58:01;;;;;;;0.50;0.50;;;12.10;99.90;;;;;;4879010;29;20053;-93
2022/10/18 02:00:41;;;;;;;0.80;0.63;;;12.10;99.90;;;;;;4868728;29;20040;-93
2022/10/18 02:03:22;;;;;;;1.55;0.50;;;12.10;99.90;;;;;;4881029;29;20040;-94
2022/10/18 02:05:57;;;;;;;0.73;0.47;;;12.00;99.90;;;;;;4873199;29;20043;-95
2022/10/18 02:08:23;;;;;;;1.02;0.50;;;12.10;99.90;;;;;;4880648;29;20103;-94
2022/10/18 02:11:03;;;;;;;1.00;0.80;;;12.00;99.90;;;;;;4872993;29;20088;-94
2022/10/18 02:13:38;;;;;;;0.30;0.30;;;12.00;99.90;;;;;;4859118;29;20060;-94
2022/10/18 02:16:08;;;;;;;0.85;0.30;;;11.90;99.90;;;;;;4867415;29;20045;-89
2022/10/18 02:18:44;;;;;;;1.77;0.68;;;11.90;99.90;;;;;;4874657;29;20076;-93
2022/10/18 02:21:14;;;;;;;0.75;0.63;;;11.90;99.90;;;;;;4868444;29;20077;-94
2022/10/18 02:23:41;;;;;;;0.47;0.32;;;11.90;99.90;;;;;;4854329;29;20400;-93
2022/10/18 02:26:06;;;;;;;;;;;11.90;99.90;;;;;;4853485;29;20128;-89
2022/10/18 02:28:32;;;;;;;0.82;0.40;;;11.80;99.90;;;;;;4873385;29;20129;-94
2022/10/18 02:31:06;;;;;;;0.77;0.37;;;11.80;99.90;;;;;;4856713;29;20067;-94
2022/10/18 02:33:51;;;;;;;0.50;0.40;;;11.80;99.90;;;;;;4878478;29;20048;-93
2022/10/18 02:36:41;;;;;;;1.05;0.50;;;11.80;99.90;;;;;;4886021;29;20053;-92
2022/10/18 02:39:13;;;;;;;0.50;0.45;;;11.70;99.90;;;;;;4869658;29;20507;-88
2022/10/18 02:41:39;;;;;;;1.50;0.88;;;11.70;99.90;;;;;;4873001;29;20056;-94
2022/10/18 02:44:05;;;;;;;1.17;0.68;;;11.70;99.90;;;;;;4863538;29;20492;-94
2022/10/18 02:46:32;;;;;;;0.30;0.30;;;11.70;99.90;;;;;;4869212;29;20064;-94
2022/10/18 02:48:58;;;;;;;1.20;0.50;;;11.70;99.90;;;;;;4863069;29;20492;-94
2022/10/18 02:51:24;;;;;;;0.77;0.77;;;11.70;99.90;;;;;;4872580;29;20052;-94
2022/10/18 02:53:49;;;;;;;1.23;0.52;;;11.70;99.90;;;;;;4852665;29;20065;-92
2022/10/18 02:56:15;;;;;;;0.60;0.60;;;11.70;99.90;;;;;;4838835;29;20548;-93
2022/10/18 02:58:41;;;;;;;1.03;0.37;;;11.70;99.90;;;;;;4893470;29;20045;-94
2022/10/18 03:01:07;;;;;;;1.13;0.55;;;11.70;99.90;;;;;;4862921;29;20072;-94
2022/10/18 03:03:32;;;;;;;0.57;0.53;;;11.80;99.90;;;;;;4865875;29;20183;-94
2022/10/18 03:05:58;;;;;;;0.67;0.67;;;11.80;99.90;;;;;;4874216;29;20117;-94
2022/10/18 03:08:24;;;;;;;1.37;0.50;;;11.70;99.90;;;;;;4865162;29;20464;-94
2022/10/18 03:10:49;;;;;;;1.87;0.70;;;11.80;99.90;;;;;;4891439;29;20057;-94
2022/10/18 03:13:15;;;;;;;1.83;0.43;;;11.80;99.90;;;;;;4876618;29;20049;-94
2022/10/18 03:15:41;;;;;;;0.60;0.60;;;11.80;99.90;;;;;;4876418;29;20131;-94
2022/10/18 03:18:07;;;;;;;1.50;0.75;;;11.70;99.90;;;;;;4862047;29;20133;-95
2022/10/18 03:20:33;;;;;;;1.00;0.50;;;11.80;99.90;;;;;;4890039;29;20041;-91
2022/10/18 03:22:59;;;;;;;1.60;0.82;;;11.80;99.90;;;;;;4872964;29;20084;-94
2022/10/18 03:25:24;;;;;;;1.57;0.80;;;11.80;99.90;;;;;;4867882;29;20068;-93
2022/10/18 03:27:50;;;;;;;0.57;0.40;;;11.80;99.90;;;;;;4846050;29;20053;-94
2022/10/18 03:30:16;;;;;;;0.53;0.30;;;11.80;99.90;;;;;;4872782;29;20048;-90
2022/10/18 03:32:41;;;;;;;0.60;0.40;;;11.80;99.90;;;;;;4876125;29;20045;-89
2022/10/18 03:35:08;;;;;;;1.10;0.23;;;11.80;99.90;;;;;;4840202;29;20043;-94
2022/10/18 03:37:34;;;;;;;1.45;0.45;;;11.80;99.90;;;;;;4868702;29;20511;-94
2022/10/18 03:40:00;;;;;;;2.08;0.60;;;11.90;99.90;;;;;;4859068;29;20052;-94
2022/10/18 03:42:26;;;;;;;0.70;0.40;;;11.90;99.90;;;;;;4874555;29;20386;-94
2022/10/18 03:44:52;;;;;;;2.03;0.30;;;11.90;99.90;;;;;;4878495;29;20053;-94
2022/10/18 03:47:17;;;;;;;0.63;0.50;;;11.90;99.90;;;;;;4852716;29;20084;-88
2022/10/18 03:49:43;;;;;;;0.93;0.33;;;11.90;99.90;;;;;;4864313;29;20076;-94
2022/10/18 03:52:09;;;;;;;0.40;0.30;;;11.90;99.90;;;;;;4846622;29;20061;-94
2022/10/18 03:54:34;;;;;;;0.70;0.27;;;11.90;99.90;;;;;;4888506;29;20068;-94
2022/10/18 03:57:00;;;;;;;0.23;0.20;;;11.90;99.90;;;;;;4870053;29;20059;-94
2022/10/18 03:59:25;;;;;;;0.83;0.40;;;11.90;99.90;;;;;;4847627;29;20128;-94
2022/10/18 04:01:51;;;;;;;0.30;0.30;;;11.90;99.90;;;;;;4845937;29;20060;-94
2022/10/18 04:04:17;;;;;;;1.57;0.40;;;11.90;99.90;;;;;;4865482;29;20045;-93
2022/10/18 04:06:42;;;;;;;0.73;0.30;;;11.90;99.90;;;;;;4875240;29;20056;-93
2022/10/18 04:09:09;;;;;;;0.13;0.13;;;11.90;99.90;;;;;;4878281;29;20526;-93
2022/10/18 04:11:34;;;;;;;0.52;0.50;;;11.90;99.90;;;;;;4859870;29;20053;-93
2022/10/18 04:14:00;;;;;;;0.30;0.30;;;11.90;99.90;;;;;;4865197;29;20049;-94
2022/10/18 04:16:26;;;;;;;0.83;0.30;;;11.90;99.90;;;;;;4868231;29;20127;-93
2022/10/18 04:18:52;;;;;;;0.80;0.60;;;11.90;99.90;;;;;;4877702;29;20048;-95
2022/10/18 04:21:17;;;;;;;0.43;0.23;;;11.80;99.90;;;;;;4880298;29;20037;-94
2022/10/18 04:23:45;;;;;;;0.77;0.40;;;11.80;99.90;;;;;;4878750;29;20166;-95
2022/10/18 04:26:11;;;;;;;0.85;0.47;;;11.80;99.90;;;;;;4895662;29;20055;-94
2022/10/18 04:28:38;;;;;;;1.40;0.73;;;11.90;99.90;;;;;;4861386;29;20392;-94
2022/10/18 04:31:05;;;;;;;0.55;0.35;;;11.80;99.90;;;;;;4846996;29;20048;-93
2022/10/18 04:33:30;;;;;;;0.30;0.30;;;11.80;99.90;;;;;;4875538;29;20101;-94
2022/10/18 04:35:56;;;;;;;0.40;0.40;;;11.80;99.90;;;;;;4869028;29;20049;-93
2022/10/18 04:38:22;;;;;;;0.20;0.20;;;11.80;99.90;;;;;;4872221;29;20788;-92
2022/10/18 04:40:48;;;;;;;0.47;0.47;;;11.80;99.90;;;;;;4876509;29;20040;-94
2022/10/18 04:43:14;;;;;;;0.88;0.40;;;11.70;99.90;;;;;;4865956;29;20093;-93
2022/10/18 04:45:40;;;;;;;0.73;0.50;;;11.80;99.90;;;;;;4861636;29;20049;-94
2022/10/18 04:48:06;;;;;;;0.60;0.30;;;11.70;99.90;;;;;;4871051;29;20123;-94
2022/10/18 04:50:32;;;;;;;0.63;0.40;;;11.70;99.90;;;;;;4874667;29;20053;-93
2022/10/18 04:52:57;;;;;;;1.00;0.43;;;11.80;99.90;;;;;;4857024;29;20360;-94
2022/10/18 04:55:23;;;;;;;0.40;0.30;;;11.70;99.90;;;;;;4857892;29;20555;-94
2022/10/18 04:57:49;;;;;;;0.63;0.40;;;11.70;99.90;;;;;;4861229;29;20053;-94
2022/10/18 05:00:15;;;;;;;0.53;0.50;;;11.70;99.90;;;;;;4865983;29;20072;-94
2022/10/18 05:02:40;;;;;;;0.60;0.60;;;11.60;99.90;;;;;;4856229;29;20045;-94
2022/10/18 05:05:07;;;;;;;0.50;0.40;;;11.70;99.90;;;;;;4851405;29;20358;-94
2022/10/18 05:07:32;;;;;;;0.50;0.50;;;11.60;99.90;;;;;;4869019;29;20041;-94
2022/10/18 05:09:58;;;;;;;0.43;0.43;;;11.60;99.90;;;;;;4852817;29;20116;-94
2022/10/18 05:12:24;;;;;;;0.47;0.40;;;11.60;99.90;;;;;;4851880;29;20049;-94
2022/10/18 05:14:49;;;;;;;1.83;0.50;;;11.60;99.90;;;;;;4867030;29;20099;-95
2022/10/18 05:17:15;;;;;;;0.60;0.43;;;11.50;99.90;;;;;;4865863;29;20188;-94
2022/10/18 05:19:41;;;;;;;0.80;0.22;;;11.60;99.90;;;;;;4853336;29;20080;-94
2022/10/18 05:22:06;;;;;;;0.07;0.07;;;11.50;99.90;;;;;;4888694;29;20101;-94
2022/10/18 05:24:32;;;;;;;0.47;0.40;;;11.50;99.90;;;;;;4892727;29;20053;-89
2022/10/18 05:26:58;;;;;;;0.20;0.20;;;11.50;99.90;;;;;;4861507;29;20053;-94
2022/10/18 05:29:24;;;;;;;0.73;0.43;;;11.50;99.90;;;;;;4864652;29;20060;-94
2022/10/18 05:31:49;;;;;;;0.77;0.47;;;11.40;99.90;;;;;;4855902;29;20049;-94
2022/10/18 05:34:16;;;;;;;0.30;0.30;;;11.40;99.90;;;;;;4866688;29;20101;-92
2022/10/18 05:36:42;;;;;;;0.50;0.43;;;11.40;99.90;;;;;;4864626;29;20156;-89
2022/10/18 05:39:07;;;;;;;0.30;0.20;;;11.40;99.90;;;;;;4870442;29;20385;-88
2022/10/18 05:41:33;;;;;;;0.53;0.53;;;11.30;99.90;;;;;;4881984;29;20345;-87
2022/10/18 05:44:03;;;;;;;2.13;0.47;;;11.30;99.90;;;;;;4849630;29;20151;-87
2022/10/18 05:46:29;;;;;;;0.93;0.32;;;11.30;99.90;;;;;;4866446;29;20049;-87
2022/10/18 05:48:55;;;;;;;0.77;0.20;;;11.30;99.90;;;;;;4856277;29;20679;-88
2022/10/18 05:51:20;;;;;;;0.37;0.17;;;11.20;99.90;;;;;;4892215;29;20053;-87
2022/10/18 05:53:46;;;;;;;0.27;0.20;;;11.20;99.90;;;;;;4887024;29;20041;-87
2022/10/18 05:56:13;;;;;;;0.63;0.50;;;11.20;99.90;;;;;;4869285;29;20052;-92
2022/10/18 05:58:39;;;;;;;;;;;11.10;99.90;;;;;;4879973;29;20048;-88
2022/10/18 06:01:06;;;;;;;0.50;0.40;;;11.20;99.90;;;;;;4866865;29;19980;-93
2022/10/18 06:03:31;;;;;;;0.90;0.35;;;11.20;99.90;;;;;;4877516;29;20685;-88
2022/10/18 06:06:09;;;;;;;0.50;0.37;;;11.20;99.90;;;;;;4852409;29;20052;-90
2022/10/18 06:08:35;;;;;;;1.20;0.52;;;11.10;99.90;;;;;;4869196;29;20048;-88
2022/10/18 06:11:12;;;;;;;0.50;0.32;;;11.10;99.90;;;;;;4876810;29;20049;-91
2022/10/18 06:13:46;;;;;;;1.27;0.52;;;11.10;99.90;;;;;;4861750;29;20049;-90
2022/10/18 06:16:14;;;;;;;0.68;0.68;;;11.10;99.90;;;;;;4870704;29;20496;-89
2022/10/18 06:18:40;;;;;;;0.20;0.20;;;11.10;99.90;;;;;;4866153;29;20052;-93
2022/10/18 06:21:06;;;;;;;0.38;0.30;;;11.00;99.90;;;;;;4873158;29;20056;-95
2022/10/18 06:23:33;;;;;;;0.30;0.30;;;11.00;99.90;;;;;;4896802;29;20048;-94
2022/10/18 06:26:00;;;;;;;0.08;0.08;;;11.00;99.90;;;;;;4882225;29;20060;-92
2022/10/18 06:28:27;;;;;;;0.70;0.35;;;11.10;99.90;;;;;;4863474;29;20548;-91
2022/10/18 06:30:53;;;;;;;;;;;11.00;99.90;;;;;;4875465;29;20059;-93
2022/10/18 06:33:18;;;;;;;0.25;0.15;;;11.00;99.90;;;;;;4864444;29;20006;-94
2022/10/18 06:35:56;;;;;;;0.80;0.40;;;11.00;99.90;;;;;;4848276;29;20041;-92
2022/10/18 06:38:22;;;;;;;0.52;0.20;;;11.00;99.90;;;;;;4864619;29;20045;-92
2022/10/18 06:40:48;;;;;;;0.93;0.20;;;11.00;99.90;;;;;;4881640;29;20048;-91
2022/10/18 06:43:13;;;;;;;0.40;0.23;;;10.90;99.90;;;;;;4874137;29;20048;-92
2022/10/18 06:45:39;;;;;;;0.87;0.47;;;10.90;99.90;;;;;;4865493;29;20059;-91
2022/10/18 06:48:05;;;;;;;0.47;0.47;;;10.90;99.90;;;;;;4878147;29;20143;-90
2022/10/18 06:50:31;;;;;;;0.70;0.30;;;10.90;99.90;;;;;;4866866;29;20140;-93
2022/10/18 06:52:56;;;;;;;1.23;0.40;;;10.90;99.90;;;;;;4871075;29;20127;-93
2022/10/18 06:55:22;;;;;;;1.87;0.57;;;10.80;99.90;;;;;;4863313;29;20065;-90
2022/10/18 06:57:48;;;;;;;2.27;0.90;;;10.80;99.90;;;;;;4868562;29;20084;-93
2022/10/18 07:00:14;;;;;;;1.17;0.33;;;10.80;99.90;;;;;;4852776;29;20104;-94
2022/10/18 07:02:40;;;;;;;0.00;0.00;;;10.80;99.90;;;;;;4866069;29;20053;-94
2022/10/18 07:05:09;;;;;;;0.70;0.30;;;10.80;99.90;;;;;;4847722;29;20317;-92
2022/10/18 07:07:35;;;;;;;0.32;0.10;;;10.80;99.90;;;;;;4875556;29;20119;-96
2022/10/18 07:10:01;;;;;;;1.50;0.45;;;10.80;99.90;;;;;;4858800;29;20112;-94
2022/10/18 07:12:27;;;;;;;0.40;0.40;;;10.70;99.90;;;;;;4876258;29;20045;-95
2022/10/18 07:14:53;;;;;;;0.20;0.20;;;10.80;99.90;;;;;;4864863;29;20072;-95
2022/10/18 07:17:19;;;;;;;;;;;10.70;99.90;;;;;;4869827;29;20063;-96
2022/10/18 07:19:45;;;;;;;0.20;0.20;;;10.70;99.90;;;;;;4879671;29;20010;-93
2022/10/18 07:22:10;;;;;;;0.60;0.30;;;10.70;99.90;;;;;;4853498;29;20079;-96
2022/10/18 07:24:36;;;;;;;0.43;0.20;;;10.80;99.90;;;;;;4872320;29;20044;-96
2022/10/18 07:27:02;;;;;;;0.20;0.20;;;10.80;99.90;;;;;;4863958;29;20063;-92
2022/10/18 07:29:27;;;;;;;0.50;0.50;;;10.80;99.90;;;;;;4869656;29;20053;-94
2022/10/18 07:31:53;;;;;;;0.27;0.23;;;10.80;99.90;;;;;;4866215;29;20045;-92
2022/10/18 07:34:19;;;;;;;0.63;0.23;;;10.80;99.90;;;;;;4863841;29;20048;-91
2022/10/18 07:36:45;;;;;;;0.47;0.40;;;10.90;99.90;;;;;;4880974;29;20045;-93
2022/10/18 07:39:10;;;;;;;0.60;0.40;;;10.90;99.90;;;;;;4872011;29;20485;-93
2022/10/18 07:41:36;;;;;;;0.30;0.20;;;10.90;99.90;;;;;;4862555;29;20079;-91
2022/10/18 07:44:03;;;;;;;0.20;0.20;;;10.90;99.90;;;;;;4859314;29;20048;-91
2022/10/18 07:46:29;;;;;;;0.40;0.35;;;10.90;99.90;;;;;;4875706;29;20053;-92
2022/10/18 07:48:55;;;;;;;0.20;0.20;;;10.90;99.90;;;;;;4885977;29;20045;-92
2022/10/18 07:51:24;;;;;;;0.10;0.10;;;11.00;99.90;;;;;;4864048;29;20120;-92
2022/10/18 07:53:50;;;;;;;0.10;0.10;;;11.90;99.90;;;;;;4851591;29;20033;-92
2022/10/18 07:56:19;;;;;;;0.50;0.40;;;11.00;99.90;;;;;;4870531;29;20052;-92
2022/10/18 07:58:46;;;;;;;0.57;0.20;;;11.10;99.90;;;;;;4877472;29;20076;-92
2022/10/18 08:01:13;;;;;;;1.55;0.47;;;11.10;99.90;;;;;;4878280;29;20041;-93
2022/10/18 08:03:40;;;;;;;;;;;11.10;99.90;;;;;;4855343;29;20085;-93
2022/10/18 08:06:08;;;;;;;0.50;0.45;;;11.10;99.90;;;;;;4879749;29;20012;-92
2022/10/18 08:08:35;;;;;;;0.75;0.35;;;11.20;99.90;;;;;;4869734;29;20041;-92
2022/10/18 08:11:13;;;;;;;0.40;0.30;;;11.20;99.90;;;;;;4859326;29;20053;-93
2022/10/18 08:13:39;;;;;;;0.88;0.30;;;11.40;99.90;;;;;;4891553;29;20048;-95
2022/10/18 08:16:08;;;;;;;0.20;0.10;;;11.40;99.90;;;;;;4866500;29;20055;-91
2022/10/18 08:18:35;;;;;;;0.68;0.30;;;11.50;99.90;;;;;;4870675;29;20053;-92
2022/10/18 08:21:03;;;;;;;0.52;0.17;;;11.50;99.90;;;;;;4865742;29;20040;-91
2022/10/18 08:23:29;;;;;;;0.82;0.32;;;11.50;99.90;;;;;;4886795;29;20480;-93
2022/10/18 08:25:54;;;;;;;0.40;0.40;;;11.50;99.90;;;;;;4869823;29;20074;-91
2022/10/18 08:28:20;;;;;;;1.27;0.17;;;11.60;99.90;;;;;;4871746;29;20037;-95
2022/10/18 08:30:46;;;;;;;0.50;0.23;;;11.70;99.90;;;;;;4877387;29;20120;-96
2022/10/18 08:33:12;;;;;;;0.20;0.20;;;11.70;99.90;;;;;;4883336;29;20118;-96
2022/10/18 08:35:38;;;;;;;0.57;0.20;;;11.70;99.90;;;;;;4857134;29;20551;-95
2022/10/18 08:38:10;;;;;;;0.20;0.20;;;11.70;99.90;;;;;;5274329;23;21162;-96
2022/10/18 08:40:43;;;;;;;0.38;0.30;;;11.70;99.90;;;;;;4845794;29;20046;-90
2022/10/18 08:43:17;;;;;;;0.45;0.30;;;11.80;99.90;;;;;;4846114;29;20073;-92
2022/10/18 08:45:43;;;;;;;1.65;0.40;;;11.90;99.90;;;;;;4850703;29;20132;-94
2022/10/18 08:48:47;;;;;;;0.25;0.25;;;12.00;99.90;;;;;;4848285;29;20041;-95
2022/10/18 08:51:27;;;;;;;1.38;0.45;;;12.10;99.90;;;;;;4779385;29;20043;-90
2022/10/18 08:54:11;;;;;;;0.10;0.10;;;12.20;99.90;;;;;;4826702;29;20053;-89
2022/10/18 08:56:39;;;;;;;0.47;0.20;;;12.20;99.90;;;;;;4845175;29;20052;-92
2022/10/18 08:59:09;;;;;;;0.15;0.15;;;12.10;99.90;;;;;;4856187;29;20045;-92
2022/10/18 09:02:09;;;;;;;0.47;0.38;;;12.30;99.90;;;;;;4855449;29;20046;-89
2022/10/18 09:05:10;;;;;;;0.10;0.10;;;12.10;99.90;;;;;;4848061;29;20053;-96
2022/10/18 09:07:55;;;;;;;0.08;0.08;;;12.10;99.90;;;;;;4824760;29;20097;-88
2022/10/18 09:10:51;;;;;;;1.10;0.20;;;12.20;99.90;;;;;;4832708;29;20089;-88
2022/10/18 09:13:33;;;;;;;0.25;0.20;;;12.40;99.90;;;;;;4846356;29;20054;-91
2022/10/18 09:16:05;;;;;;;0.13;0.10;;;12.40;99.90;;;;;;4846143;29;20088;-91
2022/10/18 09:18:58;;;;;;;1.15;0.30;;;12.50;99.90;;;;;;4831691;29;20065;-90
2022/10/18 09:21:29;;;;;;;0.20;0.20;;;12.70;99.90;;;;;;4861821;29;20550;-90
2022/10/18 09:24:12;;;;;;;0.50;0.50;;;12.70;99.90;;;;;;4846881;29;20052;-90
2022/10/18 09:26:48;;;;;;;1.30;0.20;;;12.80;99.90;;;;;;4831747;29;20401;-90
2022/10/18 09:29:43;;;;;;;0.65;0.20;;;12.80;99.90;;;;;;4846480;29;20045;-90
2022/10/18 09:32:42;;;;;;;0.13;0.13;;;12.90;99.90;;;;;;4831159;29;20050;-90
2022/10/18 09:35:14;;;;;;;0.20;0.20;;;13.00;99.90;;;;;;4846148;29;20400;-90
2022/10/18 09:37:40;;;;;;;0.30;0.30;;;13.10;99.90;;;;;;4846334;29;20106;-89
2022/10/18 09:40:21;;;;;;;0.55;0.28;;;13.20;99.90;;;;;;4845804;29;20425;-87
2022/10/18 09:42:54;;;;;;;0.32;0.30;;;14.20;99.90;;;;;;4846741;29;20144;-90
2022/10/18 09:45:39;;;;;;;0.35;0.10;;;13.40;99.90;;;;;;4846175;29;20050;-90
2022/10/18 09:48:27;;;;;;;0.40;0.20;;;13.50;99.90;;;;;;4846616;29;20497;-90
2022/10/18 09:51:01;;;;;;;0.55;0.20;;;13.50;99.90;;;;;;4861879;29;20123;-90
2022/10/18 09:53:34;;;;;;;0.40;0.30;;;13.70;99.90;;;;;;4845830;29;20148;-90
2022/10/18 09:56:08;;;;;;;0.15;0.15;;;13.80;99.90;;;;;;4845918;29;20053;-93
2022/10/18 09:58:48;;;;;;;0.65;0.65;;;13.90;99.90;;;;;;4847137;29;20046;-89
2022/10/18 10:01:29;;;;;;;0.30;0.30;;;14.10;99.90;;;;;;4861649;29;20053;-91
2022/10/18 10:03:54;;;;;;;0.43;0.25;;;14.20;99.90;;;;;;4846519;29;20044;-92
2022/10/18 10:06:33;;;;;;;0.40;0.13;;;14.30;99.90;;;;;;4846277;29;20140;-91
2022/10/18 10:09:05;;;;;;;0.73;0.20;;;14.50;99.90;;;;;;4846377;29;20060;-92
2022/10/18 10:11:44;;;;;;;0.17;0.15;;;14.70;99.90;;;;;;4861657;29;20053;-92
2022/10/18 10:14:25;;;;;;;0.10;0.10;;;14.70;99.90;;;;;;4861319;29;20041;-91
2022/10/18 10:17:04;;;;;;;0.03;0.00;;;14.80;99.90;;;;;;4846167;29;20061;-91
2022/10/18 10:19:55;;;;;;;0.10;0.08;;;15.00;99.90;;;;;;4845813;29;20053;-90
2022/10/18 10:22:35;;;;;;;0.20;0.20;;;15.00;99.90;;;;;;4845184;29;20058;-90
2022/10/18 10:25:02;;;;;;;0.10;0.10;;;15.20;99.90;;;;;;4845716;29;20053;-91
2022/10/18 10:27:32;;;;;;;0.10;0.10;;;15.30;99.90;;;;;;4830091;29;20058;-90
2022/10/18 10:30:00;;;;;;;0.45;0.30;;;15.40;99.90;;;;;;4846214;29;20506;-90
2022/10/18 10:32:29;;;;;;;0.17;0.08;;;15.60;99.90;;;;;;4830473;29;20042;-91
2022/10/18 10:34:56;;;;;;;0.10;0.10;;;15.70;99.90;;;;;;4845571;29;20088;-90
2022/10/18 10:37:34;;;;;;;0.00;0.00;;;15.70;99.90;;;;;;4829851;29;20063;-90
2022/10/18 10:40:13;;;;;;;0.20;0.20;;;15.90;99.90;;;;;;4861565;29;20057;-87
2022/10/18 10:43:14;;;;;;;0.43;0.43;;;16.00;99.90;;;;;;4845842;29;20053;-93
2022/10/18 10:45:57;;;;;;;0.10;0.10;;;16.10;99.90;;;;;;4860777;29;20060;-90
2022/10/18 10:48:24;;;;;;;1.35;0.20;;;16.20;99.90;;;;;;4860424;29;20053;-90
2022/10/18 10:50:56;;;;;;;0.10;0.10;;;16.40;99.90;;;;;;4845314;29;20057;-91
2022/10/18 10:53:49;;;;;;;0.20;0.00;;;16.60;99.90;;;;;;4845316;29;20485;-93
2022/10/18 10:56:50;;;;;;;0.10;0.10;;;16.90;99.90;;;;;;4862322;29;20049;-92
2022/10/18 10:59:19;;;;;;;0.00;0.00;;;17.10;99.90;;;;;;4843900;29;20053;-92
2022/10/18 11:01:48;;;;;;;0.75;0.10;;;17.30;99.90;;;;;;4845391;29;20054;-90
2022/10/18 11:04:26;;;;;;;1.23;0.20;;;17.50;99.90;;;;;;4846242;29;20053;-92
2022/10/18 11:07:32;;;;;;;0.03;0.03;;;17.40;99.90;;;;;;4845308;29;20049;-95
2022/10/18 11:10:00;;;;;;;1.00;0.10;;;17.20;99.90;;;;;;4849495;29;20041;-96
2022/10/18 11:13:02;;;;;;;0.32;0.15;;;17.20;99.90;;;;;;4850318;29;20080;-96
2022/10/18 11:16:04;;;;;;;0.00;0.00;;;17.30;99.90;;;;;;4848117;29;20062;-96
2022/10/18 11:18:36;;;;;;;0.20;0.20;;;17.40;99.90;;;;;;4821226;29;20068;-96
2022/10/18 11:21:22;;;;;;;0.20;0.20;;;17.70;99.90;;;;;;4832354;29;20096;-96
2022/10/18 11:23:48;;;;;;;0.00;0.00;;;17.80;99.90;;;;;;4842715;29;20124;-95
2022/10/18 11:26:36;;;;;;;0.10;0.10;;;18.00;99.90;;;;;;4842723;29;20058;-96
2022/10/18 11:29:24;;;;;;;0.00;0.00;;;18.10;99.90;;;;;;4843776;29;20524;-95
2022/10/18 11:31:57;;;;;;;;;;;18.10;99.90;;;;;;4845714;29;20070;-96
2022/10/18 11:34:26;;;;;;;0.00;0.00;;;18.10;99.90;;;;;;4845254;29;19952;-95
2022/10/18 11:37:17;;;;;;;0.10;0.10;;;18.00;99.90;;;;;;4846058;29;20054;-96
2022/10/18 11:39:42;;;;;;;0.30;0.10;;;17.90;99.90;;;;;;4845629;29;20100;-94
2022/10/18 11:42:45;;;;;;;0.00;0.00;;;17.90;99.90;;;;;;4823251;29;20088;-96
2022/10/18 11:45:38;;;;;;;0.00;0.00;;;17.50;99.90;;;;;;4827420;29;20049;-96
2022/10/18 11:48:38;;;;;;;0.00;0.00;;;17.50;99.90;;;;;;4827477;29;20447;-95
2022/10/18 11:51:19;;;;;;;0.03;0.03;;;17.70;99.90;;;;;;4828117;29;20140;-96
2022/10/18 11:54:03;;;;;;;0.10;0.00;;;17.80;99.90;;;;;;4831171;29;20049;-96
2022/10/18 11:57:01;;;;;;;0.38;0.10;;;17.80;99.90;;;;;;4840482;29;20501;-96
2022/10/18 11:59:43;;;;;;;0.10;0.10;;;18.00;99.90;;;;;;4818974;29;20057;-96
2022/10/18 12:02:27;;;;;;;0.38;0.20;;;18.00;99.90;;;;;;4854951;29;20078;-96
2022/10/18 12:04:59;;;;;;;3.47;0.57;;;18.00;99.90;;;;;;4838926;29;20093;-96
2022/10/18 12:07:31;;;;;;;0.00;0.00;;;17.90;99.90;;;;;;4853827;29;20057;-88
2022/10/18 12:09:58;;;;;;;0.20;0.10;;;17.80;99.90;;;;;;4824095;29;20089;-96
2022/10/18 12:12:30;;;;;;;0.05;0.03;;;17.80;99.90;;;;;;4849672;29;20057;-96
2022/10/18 12:15:18;;;;;;;0.10;0.10;;;18.10;99.90;;;;;;4852441;29;20053;-96
2022/10/18 12:17:48;;;;;;;0.13;0.10;;;18.30;99.90;;;;;;4850759;29;20397;-93
2022/10/18 12:20:36;;;;;;;0.63;0.10;;;18.40;99.90;;;;;;4860561;29;20050;-92
2022/10/18 12:23:12;;;;;;;0.20;0.15;;;18.70;99.90;;;;;;4844268;29;20049;-92
2022/10/18 12:25:44;;;;;;;0.00;0.00;;;18.90;99.90;;;;;;4843592;29;20041;-93
2022/10/18 12:28:22;;;;;;;0.50;0.50;;;19.10;99.90;;;;;;4822901;29;20054;-94
2022/10/18 12:31:06;;;;;;;1.77;0.52;;;19.20;99.90;;;;;;4833931;29;20057;-94
2022/10/18 12:33:39;;;;;;;0.00;0.00;;;19.10;99.90;;;;;;4844560;29;20042;-93
2022/10/18 12:36:19;;;;;;;1.33;0.05;;;19.10;99.90;;;;;;4846856;29;20057;-92
2022/10/18 12:38:50;;;;;;;0.25;0.10;;;18.90;99.90;;;;;;4846264;29;20101;-93
2022/10/18 12:41:33;;;;;;;0.00;0.00;;;18.50;99.90;;;;;;4864368;29;20069;-85
2022/10/18 12:44:17;;;;;;;0.00;0.00;;;18.10;99.90;;;;;;4834073;29;20064;-85
2022/10/18 12:46:54;;;;;;;0.15;0.10;;;17.70;99.90;;;;;;4853290;29;20113;-86
2022/10/18 12:49:25;;;;;;;0.00;0.00;;;17.70;99.90;;;;;;4860334;29;20049;-88
2022/10/18 12:51:58;;;;;;;0.00;0.00;;;17.90;99.90;;;;;;4838275;29;20053;-91
2022/10/18 12:54:36;;;;;;;0.00;0.00;;;18.10;99.90;;;;;;4827062;29;20046;-87
2022/10/18 12:57:05;;;;;;;0.10;0.00;;;18.40;99.90;;;;;;4860113;29;20053;-86
2022/10/18 12:59:31;;;;;;;0.60;0.25;;;18.70;99.90;;;;;;4843561;29;20110;-91
2022/10/18 13:02:00;;;;;;;2.05;0.50;;;18.90;99.90;;;;;;4840242;29;20197;-90
2022/10/18 13:04:31;;;;;;;0.25;0.10;;;19.20;99.90;;;;;;4843568;29;20102;-87
2022/10/18 13:06:59;;;;;;;0.10;0.10;;;19.40;99.90;;;;;;4842733;29;20053;-86
2022/10/18 13:09:36;;;;;;;0.38;0.10;;;19.50;99.90;;;;;;4841611;29;20052;-88
2022/10/18 13:12:08;;;;;;;0.20;0.10;;;19.70;99.90;;;;;;4845347;29;20496;-89